createdAt,value
2022-10-23T00:01:39.561Z,98806.65
2022-10-23T00:04:10.842Z,98812.15
2022-10-23T00:06:37.712Z,98817.45
2022-10-23T00:09:06.105Z,98817.95
2022-10-23T00:11:34.414Z,98816.88
2022-10-23T00:14:02.816Z,98819.11
2022-10-23T00:16:30.466Z,98821.43
2022-10-23T00:18:58.025Z,98826.54
2022-10-23T00:21:25.547Z,98824.14
2022-10-23T00:23:52.685Z,98829.11
2022-10-23T00:26:19.927Z,98829.56
2022-10-23T00:28:50.218Z,98835.48
2022-10-23T00:31:18.171Z,98833.30
2022-10-23T00:33:45.083Z,98835.38
2022-10-23T00:36:13.992Z,98835.73
2022-10-23T00:38:45.530Z,98832.02
2022-10-23T00:41:20.969Z,98828.86
2022-10-23T00:44:05.541Z,98824.48
2022-10-23T00:46:33.634Z,98831.84
2022-10-23T00:49:01.382Z,98832.05
2022-10-23T00:51:33.622Z,98834.25
2022-10-23T00:54:22.997Z,98839.44
2022-10-23T00:56:49.974Z,98837.83
2022-10-23T00:59:16.842Z,98836.02
2022-10-23T01:01:43.823Z,98831.27
2022-10-23T01:04:11.481Z,98832.21
2022-10-23T01:06:43.518Z,98830.56
2022-10-23T01:09:25.924Z,98833.67
2022-10-23T01:12:01.099Z,98842.86
2022-10-23T01:14:43.008Z,98837.51
2022-10-23T01:17:15.647Z,98838.90
2022-10-23T01:19:59.668Z,98841.06
2022-10-23T01:22:51.681Z,98842.61
2022-10-23T01:25:29.663Z,98840.88
2022-10-23T01:28:03.022Z,98844.84
2022-10-23T01:30:33.737Z,98845.67
2022-10-23T01:33:13.156Z,98850.52
2022-10-23T01:35:52.763Z,98851.27
2022-10-23T01:38:29.103Z,98855.80
2022-10-23T01:41:07.431Z,98857.39
2022-10-23T01:43:44.211Z,98855.97
2022-10-23T01:46:15.361Z,98859.06
2022-10-23T01:48:48.780Z,98862.72
2022-10-23T01:51:17.593Z,98868.73
2022-10-23T01:53:48.551Z,98866.88
2022-10-23T01:56:21.862Z,98866.44
2022-10-23T01:58:52.618Z,98863.63
2022-10-23T02:01:24.502Z,98862.91
2022-10-23T02:03:53.774Z,98863.20
2022-10-23T02:06:20.535Z,98863.80
2022-10-23T02:08:47.593Z,98864.69
2022-10-23T02:11:18.618Z,98866.46
2022-10-23T02:13:53.684Z,98862.54
2022-10-23T02:16:41.436Z,98854.49
2022-10-23T02:19:21.655Z,98856.14
2022-10-23T02:22:03.750Z,98857.21
2022-10-23T02:24:41.604Z,98859.89
2022-10-23T02:27:14.342Z,98867.04
2022-10-23T02:29:47.074Z,98875.16
2022-10-23T02:32:17.925Z,98873.16
2022-10-23T02:34:48.092Z,98880.38
2022-10-23T02:37:15.956Z,98877.50
2022-10-23T02:39:42.912Z,98875.22
2022-10-23T02:42:29.361Z,98875.65
2022-10-23T02:45:09.270Z,98873.40
2022-10-23T02:47:51.661Z,98877.02
2022-10-23T02:50:33.210Z,98876.05
2022-10-23T02:53:28.129Z,98872.25
2022-10-23T02:56:13.561Z,98879.25
2022-10-23T02:59:03.370Z,98883.72
2022-10-23T03:01:43.714Z,98888.39
2022-10-23T03:04:12.557Z,98890.69
2022-10-23T03:06:39.570Z,98891.46
2022-10-23T03:09:09.262Z,98894.14
2022-10-23T03:11:36.558Z,98893.42
2022-10-23T03:14:03.358Z,98893.33
2022-10-23T03:16:31.476Z,98892.96
2022-10-23T03:18:58.263Z,98891.75
2022-10-23T03:21:25.286Z,98890.48
2022-10-23T03:23:53.021Z,98887.43
2022-10-23T03:26:26.411Z,98884.46
2022-10-23T03:28:53.583Z,98888.42
2022-10-23T03:31:21.384Z,98890.77
2022-10-23T03:33:49.635Z,98890.33
2022-10-23T03:36:16.603Z,98894.96
2022-10-23T03:38:44.202Z,98893.20
2022-10-23T03:41:10.976Z,98892.01
2022-10-23T03:43:37.723Z,98893.84
2022-10-23T03:46:09.693Z,98898.53
2022-10-23T03:48:38.455Z,98893.64
2022-10-23T03:51:06.209Z,98891.45
2022-10-23T03:53:32.947Z,98895.83
2022-10-23T03:56:01.731Z,98898.77
2022-10-23T03:58:28.702Z,98904.36
2022-10-23T04:00:55.920Z,98909.20
2022-10-23T04:03:23.319Z,98909.42
2022-10-23T04:05:52.232Z,98914.63
2022-10-23T04:08:21.487Z,98915.40
2022-10-23T04:10:51.151Z,98914.55
2022-10-23T04:13:20.870Z,98909.85
2022-10-23T04:15:50.242Z,98905.48
2022-10-23T04:18:17.589Z,98901.77
2022-10-23T04:20:47.091Z,98903.39
2022-10-23T04:23:13.926Z,98902.59
2022-10-23T04:25:42.015Z,98901.80
2022-10-23T04:28:08.914Z,98892.91
2022-10-23T04:30:38.761Z,98892.05
2022-10-23T04:33:05.902Z,98888.33
2022-10-23T04:35:33.553Z,98890.73
2022-10-23T04:38:00.274Z,98889.49
2022-10-23T04:40:26.991Z,98889.27
2022-10-23T04:42:54.676Z,98885.44
2022-10-23T04:45:21.726Z,98888.88
2022-10-23T04:47:48.505Z,98887.35
2022-10-23T04:50:15.777Z,98889.77
2022-10-23T04:52:58.289Z,98890.03
2022-10-23T04:55:40.063Z,98885.87
2022-10-23T04:58:12.026Z,98883.54
2022-10-23T05:00:38.741Z,98889.05
2022-10-23T05:03:05.613Z,98888.73
2022-10-23T05:05:39.331Z,98887.52
2022-10-23T05:08:24.772Z,98883.69
2022-10-23T05:11:06.803Z,98880.74
2022-10-23T05:13:38.574Z,98875.80
2022-10-23T05:16:05.673Z,98870.27
2022-10-23T05:18:39.205Z,98877.48
2022-10-23T05:21:13.531Z,98879.56
2022-10-23T05:23:42.950Z,98882.85
2022-10-23T05:26:09.794Z,98883.17
2022-10-23T05:28:37.938Z,98883.23
2022-10-23T05:31:06.159Z,98888.47
2022-10-23T05:33:36.607Z,98887.52
2022-10-23T05:36:03.829Z,98885.43
2022-10-23T05:38:34.845Z,98888.57
2022-10-23T05:41:06.494Z,98890.23
2022-10-23T05:43:33.242Z,98891.40
2022-10-23T05:46:09.411Z,98891.61
2022-10-23T05:48:52.499Z,98894.45
2022-10-23T05:51:37.007Z,98899.25
2022-10-23T05:54:21.786Z,98898.00
2022-10-23T05:56:58.523Z,98900.36
2022-10-23T05:59:32.476Z,98906.80
2022-10-23T06:02:12.759Z,98910.98
2022-10-23T06:04:47.821Z,98914.63
2022-10-23T06:07:33.716Z,98918.09
2022-10-23T06:10:05.538Z,98929.20
2022-10-23T06:12:33.943Z,98933.89
2022-10-23T06:15:00.998Z,98940.42
2022-10-23T06:17:42.789Z,98939.20
2022-10-23T06:20:10.206Z,98942.92
2022-10-23T06:22:39.166Z,98940.79
2022-10-23T06:25:18.772Z,98947.95
2022-10-23T06:27:45.848Z,98947.56
2022-10-23T06:30:13.404Z,98949.45
2022-10-23T06:32:40.501Z,98951.96
2022-10-23T06:35:11.506Z,98958.23
2022-10-23T06:37:38.981Z,98966.21
2022-10-23T06:40:10.731Z,98969.23
2022-10-23T06:42:50.888Z,98971.31
2022-10-23T06:45:34.209Z,98967.20
2022-10-23T06:48:21.023Z,98961.29
2022-10-23T06:50:47.701Z,98961.56
2022-10-23T06:53:20.095Z,98967.02
2022-10-23T06:55:55.338Z,98973.54
2022-10-23T06:58:22.784Z,98974.82
2022-10-23T07:01:04.405Z,98973.55
2022-10-23T07:03:31.984Z,98976.20
2022-10-23T07:06:02.041Z,98972.23
2022-10-23T07:08:29.570Z,98967.48
2022-10-23T07:10:56.936Z,98965.63
2022-10-23T07:13:25.244Z,98960.66
2022-10-23T07:15:58.243Z,98958.63
2022-10-23T07:18:25.964Z,98954.39
2022-10-23T07:21:08.659Z,98955.97
2022-10-23T07:23:37.177Z,98962.08
2022-10-23T07:26:06.389Z,98968.53
2022-10-23T07:28:34.482Z,98969.15
2022-10-23T07:31:02.235Z,98969.24
2022-10-23T07:33:50.338Z,98967.34
2022-10-23T07:36:19.515Z,98960.86
2022-10-23T07:38:46.832Z,98957.89
2022-10-23T07:41:13.658Z,98962.10
2022-10-23T07:43:40.814Z,98960.23
2022-10-23T07:46:09.956Z,98963.47
2022-10-23T07:48:40.068Z,98959.03
2022-10-23T07:51:13.419Z,98956.21
2022-10-23T07:53:44.749Z,98958.61
2022-10-23T07:56:26.369Z,98953.82
2022-10-23T07:59:13.630Z,98956.08
2022-10-23T08:01:43.442Z,98953.52
2022-10-23T08:04:11.203Z,98953.64
2022-10-23T08:06:44.266Z,98954.54
2022-10-23T08:09:11.261Z,98950.82
2022-10-23T08:11:38.857Z,98951.08
2022-10-23T08:14:08.256Z,98956.38
2022-10-23T08:16:38.339Z,98962.75
2022-10-23T08:19:07.869Z,98963.33
2022-10-23T08:21:36.197Z,98965.98
2022-10-23T08:24:03.431Z,98968.27
2022-10-23T08:26:31.052Z,98974.80
2022-10-23T08:28:59.636Z,98979.21
2022-10-23T08:31:27.261Z,98978.41
2022-10-23T08:34:09.475Z,98982.98
2022-10-23T08:36:39.435Z,98987.88
2022-10-23T08:39:06.841Z,98987.39
2022-10-23T08:41:37.762Z,98988.64
2022-10-23T08:44:24.991Z,98988.88
2022-10-23T08:47:02.038Z,98990.19
2022-10-23T08:49:51.820Z,98991.55
2022-10-23T08:52:30.243Z,98993.91
2022-10-23T08:55:12.649Z,98990.98
2022-10-23T08:57:47.861Z,98984.90
2022-10-23T09:00:16.867Z,98988.64
2022-10-23T09:02:47.876Z,98993.19
2022-10-23T09:05:19.493Z,98998.66
2022-10-23T09:08:17.544Z,99003.27
2022-10-23T09:11:15.669Z,99006.60
2022-10-23T09:13:49.459Z,99001.27
2022-10-23T09:16:44.697Z,98997.33
2022-10-23T09:19:16.175Z,98999.86
2022-10-23T09:21:47.354Z,98999.23
2022-10-23T09:24:18.019Z,98997.21
2022-10-23T09:26:48.450Z,99002.67
2022-10-23T09:29:36.226Z,99010.11
2022-10-23T09:32:06.847Z,99008.52
2022-10-23T09:34:35.178Z,99011.19
2022-10-23T09:37:17.745Z,99011.14
2022-10-23T09:39:47.000Z,99005.58
2022-10-23T09:42:22.419Z,99002.67
2022-10-23T09:44:52.258Z,99004.09
2022-10-23T09:47:21.329Z,99001.69
2022-10-23T09:49:51.604Z,98999.20
2022-10-23T09:52:18.332Z,99001.96
2022-10-23T09:54:48.613Z,99004.80
2022-10-23T09:57:32.020Z,99005.96
2022-10-23T10:00:04.172Z,99008.08
2022-10-23T10:02:38.975Z,99007.77
2022-10-23T10:05:22.370Z,99001.56
2022-10-23T10:08:12.241Z,98995.66
2022-10-23T10:10:45.395Z,99000.10
2022-10-23T10:13:38.460Z,99001.62
2022-10-23T10:16:20.787Z,98991.36
2022-10-23T10:19:17.341Z,98993.16
2022-10-23T10:22:09.057Z,98981.02
2022-10-23T10:24:52.291Z,98984.15
2022-10-23T10:27:46.411Z,98980.43
2022-10-23T10:30:18.464Z,98979.52
2022-10-23T10:32:52.563Z,98977.48
2022-10-23T10:35:23.398Z,98978.71
2022-10-23T10:37:50.618Z,98972.70
2022-10-23T10:40:35.444Z,98965.24
2022-10-23T10:43:24.172Z,98957.98
2022-10-23T10:46:06.106Z,98961.48
2022-10-23T10:48:48.623Z,98957.38
2022-10-23T10:51:50.719Z,98951.71
2022-10-23T10:54:48.834Z,98947.63
2022-10-23T10:57:34.105Z,98949.09
2022-10-23T11:00:07.221Z,98942.77
2022-10-23T11:02:45.065Z,98937.00
2022-10-23T11:05:19.209Z,98935.05
2022-10-23T11:08:10.116Z,98927.74
2022-10-23T11:10:41.183Z,98921.00
2022-10-23T11:13:24.827Z,98917.05
2022-10-23T11:15:54.989Z,98912.74
2022-10-23T11:18:28.582Z,98910.23
2022-10-23T11:21:00.393Z,98900.20
2022-10-23T11:23:42.583Z,98894.66
2022-10-23T11:26:10.407Z,98896.32
2022-10-23T11:28:37.121Z,98888.42
2022-10-23T11:31:21.790Z,98888.44
2022-10-23T11:34:04.216Z,98881.19
2022-10-23T11:36:55.030Z,98874.20
2022-10-23T11:39:26.881Z,98871.70
2022-10-23T11:42:12.641Z,98873.63
2022-10-23T11:44:43.543Z,98871.92
2022-10-23T11:47:32.025Z,98864.46
2022-10-23T11:50:09.345Z,98864.46
2022-10-23T11:52:45.615Z,98861.80
2022-10-23T11:55:21.190Z,98863.52
2022-10-23T11:58:14.585Z,98854.87
2022-10-23T12:00:54.327Z,98845.14
2022-10-23T12:03:29.071Z,98835.23
2022-10-23T12:06:01.940Z,98830.05
2022-10-23T12:08:32.690Z,98823.38
2022-10-23T12:11:02.141Z,98821.00
2022-10-23T12:13:32.768Z,98817.81
2022-10-23T12:16:00.964Z,98811.56
2022-10-23T12:18:28.452Z,98805.95
2022-10-23T12:20:58.660Z,98805.98
2022-10-23T12:23:51.073Z,98811.55
2022-10-23T12:26:22.945Z,98807.83
2022-10-23T12:29:17.364Z,98816.75
2022-10-23T12:32:08.229Z,98810.84
2022-10-23T12:35:08.100Z,98808.23
2022-10-23T12:37:58.138Z,98804.02
2022-10-23T12:40:29.951Z,98801.33
2022-10-23T12:42:59.526Z,98796.89
2022-10-23T12:45:30.007Z,98806.31
2022-10-23T12:47:56.756Z,98801.21
2022-10-23T12:50:25.045Z,98803.05
2022-10-23T12:52:54.038Z,98794.41
2022-10-23T12:55:21.940Z,98794.89
2022-10-23T12:57:48.727Z,98792.05
2022-10-23T13:00:19.934Z,98785.88
2022-10-23T13:02:47.005Z,98782.00
2022-10-23T13:05:20.109Z,98783.47
2022-10-23T13:07:48.721Z,98785.85
2022-10-23T13:10:20.744Z,98780.05
2022-10-23T13:13:05.020Z,98771.08
2022-10-23T13:15:40.251Z,98774.37
2022-10-23T13:18:08.553Z,98774.14
2022-10-23T13:20:41.131Z,98773.74
2022-10-23T13:23:07.906Z,98768.84
2022-10-23T13:25:36.796Z,98767.54
2022-10-23T13:28:15.011Z,98764.68
2022-10-23T13:30:46.550Z,98772.80
2022-10-23T13:33:15.672Z,98775.30
2022-10-23T13:35:42.439Z,98775.01
2022-10-23T13:38:11.948Z,98771.33
2022-10-23T13:40:38.711Z,98767.69
2022-10-23T13:43:14.563Z,98767.90
2022-10-23T13:45:41.605Z,98763.84
2022-10-23T13:48:13.892Z,98763.71
2022-10-23T13:50:40.848Z,98754.04
2022-10-23T13:53:12.563Z,98757.45
2022-10-23T13:55:42.885Z,98752.89
2022-10-23T13:58:10.599Z,98751.41
2022-10-23T14:00:38.936Z,98749.08
2022-10-23T14:03:05.782Z,98748.77
2022-10-23T14:05:32.493Z,98750.55
2022-10-23T14:07:59.323Z,98746.98
2022-10-23T14:10:27.752Z,98748.81
2022-10-23T14:12:55.114Z,98752.09
2022-10-23T14:15:22.360Z,98749.42
2022-10-23T14:17:49.207Z,98745.00
2022-10-23T14:20:19.006Z,98742.42
2022-10-23T14:22:46.518Z,98741.97
2022-10-23T14:25:13.502Z,98744.11
2022-10-23T14:27:40.342Z,98747.33
2022-10-23T14:30:08.130Z,98746.72
2022-10-23T14:32:34.975Z,98746.08
2022-10-23T14:35:03.938Z,98741.33
2022-10-23T14:37:31.537Z,98742.84
2022-10-23T14:39:58.988Z,98744.64
2022-10-23T14:42:30.528Z,98748.65
2022-10-23T14:45:02.844Z,98745.35
2022-10-23T14:47:31.701Z,98746.58
2022-10-23T14:49:58.408Z,98743.64
2022-10-23T14:52:25.205Z,98741.84
2022-10-23T14:54:53.604Z,98739.52
2022-10-23T14:57:22.163Z,98737.87
2022-10-23T14:59:49.767Z,98733.18
2022-10-23T15:02:17.607Z,98731.32
2022-10-23T15:04:44.540Z,98730.23
2022-10-23T15:07:11.496Z,98729.24
2022-10-23T15:09:39.735Z,98730.80
2022-10-23T15:12:07.879Z,98727.42
2022-10-23T15:14:35.215Z,98724.97
2022-10-23T15:17:03.026Z,98724.95
2022-10-23T15:19:30.080Z,98723.33
2022-10-23T15:21:57.077Z,98723.73
2022-10-23T15:24:23.966Z,98724.36
2022-10-23T15:26:51.811Z,98720.38
2022-10-23T15:29:19.716Z,98717.56
2022-10-23T15:31:53.266Z,98720.69
2022-10-23T15:34:23.789Z,98720.89
2022-10-23T15:36:52.608Z,98725.88
2022-10-23T15:39:22.867Z,98729.84
2022-10-23T15:41:53.580Z,98729.98
2022-10-23T15:44:22.360Z,98728.64
2022-10-23T15:46:49.888Z,98726.86
2022-10-23T15:49:17.579Z,98728.23
2022-10-23T15:51:44.402Z,98728.96
2022-10-23T15:54:16.647Z,98727.08
2022-10-23T15:56:44.728Z,98729.94
2022-10-23T15:59:11.554Z,98729.02
2022-10-23T16:01:38.574Z,98729.98
2022-10-23T16:04:05.840Z,98732.27
2022-10-23T16:06:32.915Z,98735.67
2022-10-23T16:08:59.706Z,98735.58
2022-10-23T16:11:29.823Z,98739.91
2022-10-23T16:13:58.473Z,98738.17
2022-10-23T16:16:27.053Z,98737.19
2022-10-23T16:18:53.927Z,98744.33
2022-10-23T16:21:24.828Z,98745.23
2022-10-23T16:23:53.268Z,98751.40
2022-10-23T16:26:21.070Z,98758.70
2022-10-23T16:28:47.962Z,98759.50
2022-10-23T16:31:20.057Z,98763.89
2022-10-23T16:33:48.424Z,98770.13
2022-10-23T16:36:15.750Z,98769.99
2022-10-23T16:38:57.999Z,98770.57
2022-10-23T16:41:45.246Z,98773.83
2022-10-23T16:44:18.398Z,98772.20
2022-10-23T16:47:00.718Z,98771.75
2022-10-23T16:49:29.799Z,98778.87
2022-10-23T16:51:56.647Z,98785.13
2022-10-23T16:54:23.376Z,98785.17
2022-10-23T16:56:50.254Z,98785.40
2022-10-23T16:59:17.059Z,98780.69
2022-10-23T17:01:44.017Z,98781.72
2022-10-23T17:04:10.858Z,98788.60
2022-10-23T17:06:37.669Z,98789.26
2022-10-23T17:09:06.355Z,98788.27
2022-10-23T17:11:38.408Z,98785.83
2022-10-23T17:14:07.858Z,98790.16
2022-10-23T17:16:40.269Z,98794.21
2022-10-23T17:19:20.851Z,98794.55
2022-10-23T17:21:57.952Z,98794.52
2022-10-23T17:24:25.075Z,98797.42
2022-10-23T17:26:52.012Z,98798.54
2022-10-23T17:29:23.318Z,98794.38
2022-10-23T17:31:53.435Z,98793.33
2022-10-23T17:34:22.620Z,98792.00
2022-10-23T17:36:52.890Z,98786.06
2022-10-23T17:39:23.431Z,98788.23
2022-10-23T17:41:50.764Z,98787.20
2022-10-23T17:44:20.516Z,98787.84
2022-10-23T17:46:53.262Z,98790.48
2022-10-23T17:49:21.057Z,98785.34
2022-10-23T17:51:57.734Z,98779.02
2022-10-23T17:54:27.091Z,98771.13
2022-10-23T17:56:53.974Z,98774.30
2022-10-23T17:59:22.089Z,98769.84
2022-10-23T18:01:49.609Z,98767.81
2022-10-23T18:04:19.124Z,98768.05
2022-10-23T18:06:49.461Z,98764.19
2022-10-23T18:09:17.030Z,98762.29
2022-10-23T18:11:48.118Z,98762.48
2022-10-23T18:14:17.161Z,98760.09
2022-10-23T18:16:45.841Z,98757.28
2022-10-23T18:19:14.035Z,98755.77
2022-10-23T18:21:41.563Z,98751.66
2022-10-23T18:24:08.688Z,98751.79
2022-10-23T18:26:37.738Z,98757.73
2022-10-23T18:29:07.863Z,98756.63
2022-10-23T18:31:37.466Z,98756.77
2022-10-23T18:34:14.681Z,98756.86
2022-10-23T18:36:42.092Z,98754.86
2022-10-23T18:39:14.403Z,98751.95
2022-10-23T18:41:45.122Z,98745.88
2022-10-23T18:44:17.286Z,98742.98
2022-10-23T18:46:45.070Z,98740.52
2022-10-23T18:49:11.918Z,98740.47
2022-10-23T18:51:39.822Z,98740.85
2022-10-23T18:54:25.141Z,98736.80
2022-10-23T18:56:52.056Z,98734.61
2022-10-23T18:59:20.929Z,98736.98
2022-10-23T19:01:48.693Z,98738.77
2022-10-23T19:04:16.136Z,98739.42
2022-10-23T19:06:43.005Z,98737.98
2022-10-23T19:09:13.757Z,98740.70
2022-10-23T19:11:42.112Z,98736.69
2022-10-23T19:14:09.436Z,98724.67
2022-10-23T19:16:43.779Z,98716.91
2022-10-23T19:19:13.571Z,98713.50
2022-10-23T19:21:41.741Z,98716.20
2022-10-23T19:24:19.736Z,98715.89
2022-10-23T19:26:49.965Z,98718.56
2022-10-23T19:29:34.919Z,98716.40
2022-10-23T19:32:07.192Z,98722.49
2022-10-23T19:34:34.286Z,98715.35
2022-10-23T19:37:01.459Z,98714.39
2022-10-23T19:39:28.439Z,98716.23
2022-10-23T19:41:55.357Z,98718.32
2022-10-23T19:44:22.265Z,98722.20
2022-10-23T19:46:49.168Z,98719.79
2022-10-23T19:49:33.384Z,98727.32
2022-10-23T19:52:00.142Z,98731.56
2022-10-23T19:54:27.153Z,98736.19
2022-10-23T19:56:53.867Z,98739.85
2022-10-23T19:59:20.704Z,98739.83
2022-10-23T20:01:49.034Z,98732.46
2022-10-23T20:04:18.391Z,98729.77
2022-10-23T20:06:46.180Z,98721.63
2022-10-23T20:09:13.188Z,98710.52
2022-10-23T20:11:40.855Z,98707.77
2022-10-23T20:14:08.340Z,98703.36
2022-10-23T20:16:37.500Z,98701.92
2022-10-23T20:19:07.305Z,98700.56
2022-10-23T20:21:36.236Z,98700.06
2022-10-23T20:24:02.989Z,98697.42
2022-10-23T20:26:30.590Z,98689.23
2022-10-23T20:28:57.705Z,98688.88
2022-10-23T20:31:26.215Z,98693.90
2022-10-23T20:33:53.400Z,98698.20
2022-10-23T20:36:37.941Z,98701.06
2022-10-23T20:39:10.101Z,98701.83
2022-10-23T20:41:37.578Z,98699.41
2022-10-23T20:44:06.882Z,98692.30
2022-10-23T20:46:34.038Z,98691.01
2022-10-23T20:49:00.849Z,98688.77
2022-10-23T20:51:27.836Z,98684.90
2022-10-23T20:53:54.944Z,98680.20
2022-10-23T20:56:30.173Z,98679.84
2022-10-23T20:59:00.110Z,98677.63
2022-10-23T21:01:28.329Z,98677.45
2022-10-23T21:03:57.224Z,98674.27
2022-10-23T21:06:25.479Z,98674.54
2022-10-23T21:09:02.438Z,98675.34
2022-10-23T21:11:29.408Z,98671.30
2022-10-23T21:13:57.408Z,98676.10
2022-10-23T21:16:28.635Z,98673.97
2022-10-23T21:18:56.901Z,98669.59
2022-10-23T21:21:24.848Z,98669.80
2022-10-23T21:23:54.986Z,98669.81
2022-10-23T21:26:24.284Z,98669.44
2022-10-23T21:28:56.168Z,98667.23
2022-10-23T21:31:27.826Z,98663.06
2022-10-23T21:33:54.557Z,98662.71
2022-10-23T21:36:24.153Z,98665.75
2022-10-23T21:38:53.691Z,98665.04
2022-10-23T21:41:24.059Z,98667.46
2022-10-23T21:43:56.543Z,98668.00
2022-10-23T21:46:24.615Z,98671.67
2022-10-23T21:48:52.187Z,98671.06
2022-10-23T21:51:29.553Z,98668.26
2022-10-23T21:53:57.761Z,98668.36
2022-10-23T21:56:30.556Z,98660.70
2022-10-23T21:58:59.576Z,98659.59
2022-10-23T22:01:27.310Z,98651.59
2022-10-23T22:03:54.483Z,98646.58
2022-10-23T22:06:25.695Z,98647.82
2022-10-23T22:08:53.924Z,98644.27
2022-10-23T22:11:20.893Z,98640.30
2022-10-23T22:13:48.289Z,98633.58
2022-10-23T22:16:16.229Z,98634.73
2022-10-23T22:18:43.435Z,98629.33
2022-10-23T22:21:13.210Z,98619.98
2022-10-23T22:23:40.433Z,98616.07
2022-10-23T22:26:10.023Z,98615.28
2022-10-23T22:28:36.864Z,98610.12
2022-10-23T22:31:03.561Z,98605.54
2022-10-23T22:33:31.117Z,98611.48
2022-10-23T22:36:02.480Z,98611.19
2022-10-23T22:38:32.033Z,98616.15
2022-10-23T22:41:02.039Z,98618.98
2022-10-23T22:43:29.602Z,98616.58
2022-10-23T22:46:13.249Z,98619.95
2022-10-23T22:48:40.455Z,98611.34
2022-10-23T22:51:09.141Z,98603.61
2022-10-23T22:53:36.338Z,98610.23
2022-10-23T22:56:07.427Z,98612.88
2022-10-23T22:58:34.717Z,98618.77
2022-10-23T23:01:05.890Z,98614.48
2022-10-23T23:03:32.807Z,98612.39
2022-10-23T23:05:59.542Z,98609.16
2022-10-23T23:08:26.253Z,98599.39
2022-10-23T23:10:54.590Z,98594.54
2022-10-23T23:13:21.657Z,98594.30
2022-10-23T23:15:48.420Z,98596.80
2022-10-23T23:18:15.181Z,98599.73
2022-10-23T23:20:42.089Z,98602.10
2022-10-23T23:23:09.693Z,98604.48
2022-10-23T23:25:49.433Z,98595.95
2022-10-23T23:28:22.527Z,98593.06
2022-10-23T23:30:49.654Z,98582.11
2022-10-23T23:33:23.919Z,98580.67
2022-10-23T23:35:50.629Z,98575.48
2022-10-23T23:38:17.282Z,98575.79
2022-10-23T23:40:51.717Z,98574.22
2022-10-23T23:43:18.682Z,98578.50
2022-10-23T23:45:45.881Z,98577.73
2022-10-23T23:48:12.621Z,98579.93
2022-10-23T23:50:39.351Z,98585.27
2022-10-23T23:53:06.025Z,98579.95
2022-10-23T23:55:33.125Z,98577.06
2022-10-23T23:57:59.874Z,98580.23
